Archival Weather

Half Moon Bay

Half Moon Bay, California (KHAF)

Report from: Wednesday, December 6, 2023 5:15 AM PST
Current time: Saturday, February 24, 2024 9:01 AM PST

Current weather – Weather history – Daily summaries
Weather forecast

Present weatherFog
Temperature11.0°C (51.8°F)
Dew point11.0°C (51.8°F)
Winds 5 kts (2.6 m/s, 5.8 mph) South (190°)
Visibility2640 ft. (804.7 m)
Clouds Ceiling: Overcast 200 ft. (61 m)
Altimeter30.02 in.Hg (1017 mB)
Relative humidity100 %
Density altitude-406 ft. (-124 m)
Remarks Fully automated report
Automated weather observing station with precipitation discriminator
Flight conditions Low Instrument Meteorological Conditions
Raw dataKHAF 061315Z AUTO 19005KT 1/2SM FG OVC002 11/11 A3002 RMK AO2
An error has occurred. This application may no longer respond until reloaded. Reload 🗙